createdAt,value
2022-08-18T00:03:55.597Z,26.43
2022-08-18T00:09:04.934Z,27.06
2022-08-18T00:14:08.242Z,27.44
2022-08-18T00:19:09.883Z,27.96
2022-08-18T00:24:11.639Z,28.64
2022-08-18T00:29:13.206Z,28.89
2022-08-18T00:34:14.866Z,29.59
2022-08-18T00:39:16.866Z,31.14
2022-08-18T00:44:18.418Z,32.56
2022-08-18T00:49:19.986Z,32.44
2022-08-18T00:54:29.186Z,33.33
2022-08-18T00:59:33.555Z,34.14
2022-08-18T01:04:44.397Z,34.47
2022-08-18T01:09:51.932Z,34.62
2022-08-18T01:14:54.922Z,35.72
2022-08-18T01:20:16.915Z,36.29
2022-08-18T01:25:40.147Z,35.89
2022-08-18T01:30:50.930Z,36.44
2022-08-18T01:35:54.274Z,36.55
2022-08-18T01:41:23.170Z,37.61
2022-08-18T01:46:20.265Z,37.82
2022-08-18T01:51:40.126Z,37.87
2022-08-18T01:56:43.436Z,37.92
2022-08-18T02:01:48.915Z,37.92
2022-08-18T02:06:56.242Z,38.58
2022-08-18T02:12:00.141Z,38.70
2022-08-18T02:17:04.667Z,38.69
2022-08-18T02:22:08.067Z,38.99
2022-08-18T02:27:11.893Z,39.30
2022-08-18T02:32:13.973Z,39.73
2022-08-18T02:37:15.897Z,39.18
2022-08-18T02:42:18.153Z,39.34
2022-08-18T02:47:20.873Z,39.40
2022-08-18T02:52:23.087Z,39.39
2022-08-18T02:57:24.723Z,39.46
2022-08-18T03:02:26.470Z,39.56
2022-08-18T03:07:28.106Z,39.80
2022-08-18T03:12:29.659Z,40.13
2022-08-18T03:17:31.919Z,39.80
2022-08-18T03:22:34.246Z,40.28
2022-08-18T03:27:36.063Z,40.57
2022-08-18T03:32:37.705Z,40.52
2022-08-18T03:37:39.294Z,41.25
2022-08-18T03:42:40.916Z,41.33
2022-08-18T03:47:42.487Z,41.48
2022-08-18T03:52:48.654Z,41.26
2022-08-18T03:57:52.994Z,41.23
2022-08-18T04:02:55.047Z,41.10
2022-08-18T04:07:57.656Z,41.26
2022-08-18T04:12:59.330Z,41.33
2022-08-18T04:18:04.704Z,40.89
2022-08-18T04:23:06.607Z,41.26
2022-08-18T04:28:08.231Z,41.42
2022-08-18T04:33:09.839Z,41.06
2022-08-18T04:38:11.575Z,41.16
2022-08-18T04:43:15.543Z,41.25
2022-08-18T04:48:17.681Z,41.23
2022-08-18T04:53:38.190Z,41.27
2022-08-18T04:58:39.905Z,41.25
2022-08-18T05:03:49.940Z,41.15
2022-08-18T05:08:54.584Z,41.18
2022-08-18T05:14:00.229Z,41.10
2022-08-18T05:19:14.934Z,41.13
2022-08-18T05:24:17.467Z,41.27
2022-08-18T05:29:23.539Z,41.20
2022-08-18T05:34:25.716Z,40.96
2022-08-18T05:39:40.355Z,41.07
2022-08-18T05:44:46.008Z,41.40
2022-08-18T05:49:49.373Z,41.23
2022-08-18T05:55:19.742Z,41.08
2022-08-18T06:00:23.959Z,41.19
2022-08-18T06:05:32.664Z,41.57
2022-08-18T06:10:35.882Z,41.28
2022-08-18T06:15:39.600Z,41.50
2022-08-18T06:20:50.479Z,41.38
2022-08-18T06:26:11.057Z,41.45
2022-08-18T06:31:30.425Z,41.56
2022-08-18T06:36:45.070Z,40.99
2022-08-18T06:41:49.480Z,41.26
2022-08-18T06:46:56.391Z,41.03
2022-08-18T06:51:58.091Z,40.74
2022-08-18T06:56:59.934Z,40.35
2022-08-18T07:02:18.521Z,40.26
2022-08-18T07:07:43.435Z,40.22
2022-08-18T07:12:45.194Z,40.04
2022-08-18T07:17:49.452Z,39.94
2022-08-18T07:23:01.512Z,39.78
2022-08-18T07:28:04.843Z,39.36
2022-08-18T07:33:19.246Z,38.98
2022-08-18T07:38:43.867Z,39.12
2022-08-18T07:43:52.262Z,39.05
2022-08-18T07:48:54.077Z,39.12
2022-08-18T07:54:31.230Z,38.86
2022-08-18T07:59:45.195Z,38.80
2022-08-18T08:04:49.867Z,39.00
2022-08-18T08:10:22.570Z,38.92
2022-08-18T08:15:49.642Z,38.84
2022-08-18T08:20:59.498Z,39.03
2022-08-18T08:26:24.549Z,38.91
2022-08-18T08:31:47.727Z,38.68
2022-08-18T08:36:59.161Z,38.24
2022-08-18T08:42:31.874Z,37.49
2022-08-18T08:47:36.905Z,37.54
2022-08-18T08:52:43.735Z,37.76
2022-08-18T08:57:56.033Z,37.39
2022-08-18T09:03:00.728Z,37.12
2022-08-18T09:08:34.110Z,37.28
2022-08-18T09:13:50.955Z,36.60
2022-08-18T09:19:19.291Z,36.42
2022-08-18T09:24:29.108Z,36.77
2022-08-18T09:29:54.274Z,36.59
2022-08-18T09:35:25.407Z,36.04
2022-08-18T09:46:12.374Z,35.52
2022-08-18T09:51:31.499Z,35.19
2022-08-18T10:02:33.034Z,34.89
2022-08-18T10:07:43.239Z,34.47
2022-08-18T10:13:03.739Z,34.28
2022-08-18T10:18:26.859Z,34.27
2022-08-18T10:29:52.921Z,33.86
2022-08-18T10:34:55.560Z,33.41
2022-08-18T10:40:03.230Z,33.02
2022-08-18T10:45:25.903Z,33.25
2022-08-18T10:50:50.081Z,33.15
2022-08-18T10:56:09.362Z,33.22
2022-08-18T11:01:36.955Z,33.31
2022-08-18T11:06:49.051Z,32.93
2022-08-18T11:12:00.026Z,32.77
2022-08-18T11:17:09.118Z,32.11
2022-08-18T11:22:36.509Z,32.34
2022-08-18T11:27:46.651Z,31.84
2022-08-18T11:32:52.198Z,31.60
2022-08-18T11:37:59.868Z,31.00
2022-08-18T11:43:29.736Z,31.67
2022-08-18T11:48:51.585Z,31.42
2022-08-18T11:54:00.618Z,31.10
2022-08-18T11:59:04.568Z,31.59
2022-08-18T12:04:44.847Z,31.58
2022-08-18T12:10:17.693Z,30.62
2022-08-18T12:15:24.643Z,30.66
2022-08-18T12:20:27.560Z,30.69
2022-08-18T12:25:29.297Z,30.41
2022-08-18T12:30:31.093Z,30.67
2022-08-18T12:35:34.880Z,30.11
2022-08-18T12:40:36.970Z,30.33
2022-08-18T12:45:39.276Z,30.25
2022-08-18T12:50:54.641Z,30.13
2022-08-18T12:56:01.163Z,29.64
2022-08-18T13:01:03.780Z,29.69
2022-08-18T13:06:06.039Z,29.21
2022-08-18T13:11:15.225Z,29.18
2022-08-18T13:16:38.924Z,29.16
2022-08-18T13:21:49.617Z,28.59
2022-08-18T13:26:51.669Z,28.65
2022-08-18T13:31:58.234Z,28.15
2022-08-18T13:36:59.883Z,28.12
2022-08-18T13:42:21.562Z,27.65
2022-08-18T13:47:27.649Z,27.14
2022-08-18T13:52:41.217Z,27.12
2022-08-18T13:57:50.293Z,27.28
2022-08-18T14:02:57.279Z,27.37
2022-08-18T14:07:59.055Z,27.31
2022-08-18T14:13:20.158Z,27.88
2022-08-18T14:18:29.057Z,27.36
2022-08-18T14:23:52.950Z,27.03
2022-08-18T14:28:55.554Z,27.43
2022-08-18T14:33:59.718Z,27.41
2022-08-18T14:39:06.106Z,27.32
2022-08-18T14:44:15.328Z,27.06
2022-08-18T14:49:22.148Z,27.06
2022-08-18T14:54:32.029Z,27.49
2022-08-18T14:59:34.688Z,27.11
2022-08-18T15:04:55.927Z,27.09
2022-08-18T15:10:15.339Z,27.37
2022-08-18T15:15:22.505Z,27.46
2022-08-18T15:20:29.770Z,27.00
2022-08-18T15:25:47.137Z,27.42
2022-08-18T15:36:16.676Z,27.17
2022-08-18T15:41:43.902Z,26.74
2022-08-18T15:46:51.302Z,26.86
2022-08-18T15:51:55.173Z,27.23
2022-08-18T15:56:58.851Z,26.84
2022-08-18T16:02:01.037Z,26.94
2022-08-18T16:07:02.729Z,27.01
2022-08-18T16:12:04.677Z,26.56
2022-08-18T16:17:09.440Z,26.95
2022-08-18T16:22:19.803Z,26.79
2022-08-18T16:27:24.228Z,27.17
2022-08-18T16:32:26.369Z,27.18
2022-08-18T16:37:28.150Z,26.90
2022-08-18T16:42:32.815Z,26.85
2022-08-18T16:47:39.065Z,27.11
2022-08-18T16:52:41.894Z,27.27
2022-08-18T16:58:03.220Z,27.12
2022-08-18T17:03:24.942Z,27.43
2022-08-18T17:08:26.605Z,27.68
2022-08-18T17:13:28.703Z,27.79
2022-08-18T17:18:30.562Z,27.60
2022-08-18T17:23:34.109Z,27.48
2022-08-18T17:28:50.195Z,27.85
2022-08-18T17:33:57.470Z,27.69
2022-08-18T17:39:02.855Z,27.99
2022-08-18T17:44:06.840Z,27.78
2022-08-18T17:49:54.401Z,27.74
2022-08-18T17:55:20.107Z,28.11
2022-08-18T18:00:22.283Z,28.38
2022-08-18T18:05:32.207Z,28.29
2022-08-18T18:16:29.275Z,29.98
2022-08-18T18:22:00.077Z,30.84
2022-08-18T18:26:55.892Z,30.92
2022-08-18T18:32:02.497Z,31.49
2022-08-18T18:37:04.285Z,32.04
2022-08-18T18:42:15.821Z,32.19
2022-08-18T18:47:40.434Z,32.77
2022-08-18T18:53:08.412Z,32.93
2022-08-18T18:58:55.507Z,33.21
2022-08-18T19:04:10.268Z,33.81
2022-08-18T19:09:37.590Z,34.23
2022-08-18T19:15:05.012Z,34.94
2022-08-18T19:20:15.932Z,35.37
2022-08-18T19:25:36.312Z,36.36
2022-08-18T19:30:42.782Z,37.04
2022-08-18T19:36:04.598Z,38.06
2022-08-18T19:41:20.267Z,39.52
2022-08-18T19:46:38.289Z,39.88
2022-08-18T19:51:42.749Z,40.37
2022-08-18T19:56:56.552Z,40.89
2022-08-18T20:02:35.113Z,41.17
2022-08-18T20:07:40.135Z,42.81
2022-08-18T20:13:23.358Z,42.53
2022-08-18T20:18:35.860Z,43.41
2022-08-18T20:23:59.642Z,43.81
2022-08-18T20:29:02.348Z,44.42
2022-08-18T20:34:14.010Z,44.50
2022-08-18T20:39:35.342Z,45.16
2022-08-18T20:44:50.038Z,45.43
2022-08-18T20:50:07.301Z,45.86
2022-08-18T20:55:46.311Z,45.39
2022-08-18T21:00:55.658Z,45.95
2022-08-18T21:06:03.224Z,45.80
2022-08-18T21:11:20.579Z,45.54
2022-08-18T21:16:45.169Z,45.78
2022-08-18T21:21:53.937Z,45.54
2022-08-18T21:26:58.945Z,45.96
2022-08-18T21:32:17.056Z,45.63
2022-08-18T21:37:19.801Z,45.88
2022-08-18T21:42:32.646Z,45.92
2022-08-18T21:47:34.773Z,45.67
2022-08-18T21:52:40.390Z,46.26
2022-08-18T21:58:17.593Z,46.08
2022-08-18T22:03:23.295Z,46.44
2022-08-18T22:08:27.633Z,46.13
2022-08-18T22:13:48.135Z,46.37
2022-08-18T22:18:50.486Z,46.67
2022-08-18T22:24:11.379Z,46.41
2022-08-18T22:29:26.923Z,46.54
2022-08-18T22:34:32.969Z,47.08
2022-08-18T22:39:39.370Z,47.10
2022-08-18T22:44:42.231Z,47.63
2022-08-18T22:49:45.312Z,47.39
2022-08-18T22:54:47.155Z,47.62
2022-08-18T22:59:52.692Z,47.93
2022-08-18T23:04:54.461Z,48.23
2022-08-18T23:09:56.385Z,48.21
2022-08-18T23:14:58.965Z,48.51
2022-08-18T23:20:00.733Z,48.53
2022-08-18T23:25:09.185Z,48.43
2022-08-18T23:30:12.738Z,48.65
2022-08-18T23:35:15.603Z,48.29
2022-08-18T23:40:19.475Z,48.71
2022-08-18T23:45:21.275Z,48.97
2022-08-18T23:50:23.878Z,48.96
2022-08-18T23:55:28.921Z,48.87
